MincHOS Sexto — EAVW — position and weather

sailwx.info

Track history (hours):
 
Tides and Currents Weather Stations Pressure Air Temp Water Temp Dewpoint Dewpoint Depression Visibility Wind Speed Wind Dir Waves Ship Positions

MincHOS Sexto

Last reported at 2015-Jan-15 14:25 UTC. Time now 2015-Mar-29 22:28 UTC.
Position N 43°54' W 005°23'.
Warning: this ship's position is months out of date.

Length 30 m; draft 3 m.

Type: Fishing. MMSI: 224204490.

Date/timePositionNaut miles runAvg speedWind from/ knotsBaromVisibWave heightAir tempDewpointWater temp
2015-Jan-15 14:25N 43°54' W 005°23'23 1.5
2015-Jan-14 23:16N 43°34' W 005°40'1 2.0
2015-Jan-14 22:33N 43°33' W 005°42'0 0.0
2015-Jan-14 21:33N 43°33' W 005°42'0 0.0
2015-Jan-14 20:33N 43°33' W 005°42'0 0.0
2015-Jan-14 19:33N 43°33' W 005°42'0 0.1
2015-Jan-14 18:06N 43°33' W 005°42'9 9.4
2015-Jan-14 17:09N 43°35' W 005°30'8 0.2
2015-Jan-12 23:16N 43°34' W 005°41'1 1.6
2015-Jan-12 22:33N 43°33' W 005°42'0 0.0
2015-Jan-12 21:33N 43°33' W 005°42'0 0.0
2015-Jan-12 20:33N 43°33' W 005°42'0 0.1
2015-Jan-12 18:28N 43°33' W 005°42'12 9.3
2015-Jan-12 17:14N 43°43' W 005°33'  
Track history (hours):
 
Tides and Currents Weather Stations Pressure Air Temp Water Temp Dewpoint Dewpoint Depression Visibility Wind Speed Wind Dir Waves Ship Positions

MincHOS Sexto

Last reported at 2015-Jan-15 14:25 UTC. Time now 2015-Mar-29 22:28 UTC.
Position N 43°54' W 005°23'.
Warning: this ship's position is months out of date.

Length 30 m; draft 3 m.

Type: Fishing. MMSI: 224204490.

Date/timePositionNaut miles runAvg speedWind from/ knotsBaromVisibWave heightAir tempDewpointWater temp
2015-Jan-15 14:25N 43°54' W 005°23'23 1.5
2015-Jan-14 23:16N 43°34' W 005°40'1 2.0
2015-Jan-14 22:33N 43°33' W 005°42'0 0.0
2015-Jan-14 21:33N 43°33' W 005°42'0 0.0
2015-Jan-14 20:33N 43°33' W 005°42'0 0.0
2015-Jan-14 19:33N 43°33' W 005°42'0 0.1
2015-Jan-14 18:06N 43°33' W 005°42'9 9.4
2015-Jan-14 17:09N 43°35' W 005°30'8 0.2
2015-Jan-12 23:16N 43°34' W 005°41'1 1.6
2015-Jan-12 22:33N 43°33' W 005°42'0 0.0
2015-Jan-12 21:33N 43°33' W 005°42'0 0.0
2015-Jan-12 20:33N 43°33' W 005°42'0 0.1
2015-Jan-12 18:28N 43°33' W 005°42'12 9.3
2015-Jan-12 17:14N 43°43' W 005°33'  

Dump ship's entire track history